Time;durP1;ratioP1;P1;durP2;ratioP2;P2;SDS_P1;SDS_P2;PMS_P1;PMS_P2;Temp;Humidity;BMP_temperature;BMP_pressure;BME280_temperature;BME280_humidity;BME280_pressure;Samples;Min_cycle;Max_cycle;Signal;HPM_P1;HPM_P2
2022/02/19 00:00:54;;;;;;;41.85;20.30;;;;;;;4.14;49.45;100364.22;5088372;28;20040;-21
2022/02/19 00:03:20;;;;;;;26.38;12.50;;;;;;;3.79;49.68;100361.00;5087808;28;20484;-21
2022/02/19 00:05:45;;;;;;;26.17;11.65;;;;;;;3.26;50.72;100328.09;5088529;28;20044;-21
2022/02/19 00:08:13;;;;;;;18.58;8.55;;;;;;;3.79;49.59;100366.28;5088066;28;20644;-21
2022/02/19 00:10:41;;;;;;;21.35;9.30;;;;;;;3.94;49.53;100372.53;5087556;28;20032;-22
2022/02/19 00:13:07;;;;;;;17.92;9.55;;;;;;;4.20;48.87;100368.81;5088027;28;20032;-22
2022/02/19 00:15:32;;;;;;;22.00;10.35;;;;;;;3.90;48.92;100362.47;5088007;28;20127;-21
2022/02/19 00:17:58;;;;;;;19.45;11.15;;;;;;;3.35;51.25;100361.34;5087591;28;20043;-21
2022/02/19 00:20:24;;;;;;;24.65;13.48;;;;;;;3.51;50.85;100363.97;5087864;28;20039;-22
2022/02/19 00:22:49;;;;;;;26.95;12.25;;;;;;;3.79;50.87;100372.38;5087515;28;20031;-22
2022/02/19 00:25:15;;;;;;;22.88;10.65;;;;;;;3.97;49.54;100342.34;5087626;28;20043;-22
2022/02/19 00:27:40;;;;;;;20.02;9.38;;;;;;;4.15;48.96;100344.78;5087710;28;20024;-21
2022/02/19 00:30:06;;;;;;;23.02;11.35;;;;;;;3.59;50.81;100334.97;5087470;28;20480;-21
2022/02/19 00:32:32;;;;;;;21.55;11.23;;;;;;;3.74;50.60;100347.47;5087315;28;20024;-21
2022/02/19 00:34:58;;;;;;;19.90;10.55;;;;;;;2.97;52.54;100324.13;5069508;28;20062;-22
2022/02/19 00:37:24;;;;;;;19.55;9.85;;;;;;;2.05;53.06;100276.66;5087499;28;20027;-22
2022/02/19 00:39:49;;;;;;;22.40;10.30;;;;;;;2.89;53.22;100345.19;5087493;28;20035;-22
2022/02/19 00:42:15;;;;;;;31.63;15.90;;;;;;;3.00;51.54;100336.94;5087492;28;20502;-21
2022/02/19 00:44:40;;;;;;;27.85;15.02;;;;;;;3.24;50.81;100324.78;5087138;28;20403;-23
2022/02/19 00:47:06;;;;;;;19.75;10.13;;;;;;;3.37;50.39;100325.09;5087045;28;20050;-22
2022/02/19 00:49:31;;;;;;;21.58;10.52;;;;;;;3.42;50.38;100320.16;5069049;28;20463;-22
2022/02/19 00:51:57;;;;;;;22.38;11.20;;;;;;;3.86;49.40;100314.47;5087229;28;20023;-22
2022/02/19 00:54:23;;;;;;;20.17;9.88;;;;;;;3.82;49.97;100329.00;5087429;28;20043;-22
2022/02/19 00:56:48;;;;;;;20.77;9.35;;;;;;;3.53;49.63;100314.53;5086879;28;20028;-22
2022/02/19 00:59:14;;;;;;;18.67;9.27;;;;;;;3.20;50.64;100311.09;5087061;28;20122;-22
2022/02/19 01:01:39;;;;;;;19.88;9.88;;;;;;;3.29;50.75;100311.94;5087184;28;20085;-22
2022/02/19 01:04:05;;;;;;;15.85;8.15;;;;;;;3.50;50.31;100316.72;5087122;28;20568;-21
2022/02/19 01:06:31;;;;;;;18.27;8.60;;;;;;;3.24;50.54;100314.25;5087072;28;20043;-23
2022/02/19 01:08:57;;;;;;;38.63;17.50;;;;;;;3.39;50.10;100323.13;5069122;28;20024;-22
2022/02/19 01:11:22;;;;;;;15.20;8.18;;;;;;;3.11;51.02;100330.56;5086747;28;20193;-22
2022/02/19 01:13:48;;;;;;;17.80;8.00;;;;;;;3.15;50.83;100332.69;5086885;28;20035;-22
2022/02/19 01:16:14;;;;;;;10.75;5.72;;;;;;;2.45;52.23;100321.69;5087041;28;20032;-22
2022/02/19 01:18:39;;;;;;;9.98;5.82;;;;;;;2.66;52.17;100332.63;5086432;28;20035;-21
2022/02/19 01:21:05;;;;;;;14.20;5.97;;;;;;;2.60;52.20;100335.91;5087413;28;20044;-22
2022/02/19 01:23:30;;;;;;;14.27;6.45;;;;;;;2.42;53.08;100342.06;5068804;28;20033;-22
2022/02/19 01:25:56;;;;;;;11.18;5.10;;;;;;;2.12;54.01;100334.72;5087066;28;20042;-22
2022/02/19 01:28:21;;;;;;;10.27;4.90;;;;;;;2.03;54.34;100314.63;5087036;28;20495;-21
2022/02/19 01:30:47;;;;;;;10.32;5.13;;;;;;;2.25;54.16;100335.13;5086226;28;20039;-22
2022/02/19 01:33:12;;;;;;;9.07;4.90;;;;;;;2.41;53.59;100332.53;5087016;28;20461;-22
2022/02/19 01:35:38;;;;;;;11.50;5.50;;;;;;;2.24;53.12;100338.72;5087018;28;20032;-22
2022/02/19 01:38:03;;;;;;;10.07;4.38;;;;;;;2.40;53.41;100351.94;5087072;28;20030;-22
2022/02/19 01:40:29;;;;;;;10.40;4.90;;;;;;;2.75;52.71;100355.34;5086939;28;20090;-22
2022/02/19 01:42:55;;;;;;;11.65;4.95;;;;;;;2.91;52.15;100332.66;5086644;28;20028;-22
2022/02/19 01:45:20;;;;;;;9.38;4.95;;;;;;;3.35;50.32;100335.00;5086376;28;20047;-22
2022/02/19 01:47:46;;;;;;;10.60;5.18;;;;;;;3.57;50.54;100344.88;5086820;28;20589;-22
2022/02/19 01:50:11;;;;;;;10.18;4.55;;;;;;;3.22;50.45;100349.47;5086962;28;20097;-22
2022/02/19 01:52:39;;;;;;;9.10;3.97;;;;;;;2.97;50.88;100340.75;5086386;28;20020;-21
2022/02/19 01:55:05;;;;;;;11.90;4.70;;;;;;;2.67;51.38;100338.69;5071787;28;20027;-21
2022/02/19 01:57:30;;;;;;;10.40;4.25;;;;;;;2.03;53.05;100351.44;5090488;28;20050;-22
2022/02/19 01:59:56;;;;;;;9.70;4.47;;;;;;;1.91;54.54;100338.53;5090463;28;20024;-21
2022/02/19 02:02:21;;;;;;;13.35;5.55;;;;;;;2.33;53.16;100345.66;5072323;28;20089;-22
2022/02/19 02:04:46;;;;;;;13.90;5.90;;;;;;;1.86;53.80;100330.31;5090177;28;20016;-22
2022/02/19 02:07:12;;;;;;;9.90;4.95;;;;;;;1.66;54.60;100339.41;5090498;28;20032;-23
2022/02/19 02:09:37;;;;;;;10.88;5.40;;;;;;;1.91;54.03;100322.78;5090764;28;20058;-22
2022/02/19 02:12:04;;;;;;;11.75;6.30;;;;;;;2.26;53.54;100360.44;5089843;28;20415;-22
2022/02/19 02:14:29;;;;;;;13.85;6.10;;;;;;;2.11;53.91;100343.59;5089765;28;20024;-22
2022/02/19 02:16:55;;;;;;;10.07;5.38;;;;;;;2.53;53.03;100345.41;5071912;28;20035;-21
2022/02/19 02:19:20;;;;;;;9.85;5.00;;;;;;;2.25;53.88;100329.84;5090235;28;20016;-22
2022/02/19 02:21:46;;;;;;;9.70;4.80;;;;;;;2.24;53.49;100322.91;5090338;28;20028;-21
2022/02/19 02:24:11;;;;;;;12.68;5.47;;;;;;;2.03;54.02;100341.75;5089869;28;20403;-22
2022/02/19 02:26:38;;;;;;;8.63;4.53;;;;;;;2.16;53.47;100338.66;5089920;28;20063;-22
2022/02/19 02:29:04;;;;;;;9.45;4.57;;;;;;;1.48;55.08;100334.97;5089685;28;20112;-21
2022/02/19 02:31:29;;;;;;;11.10;4.72;;;;;;;1.80;54.03;100326.50;5089938;28;20093;-21
2022/02/19 02:33:55;;;;;;;9.07;5.07;;;;;;;1.67;53.88;100335.78;5090116;28;20388;-22
2022/02/19 02:36:20;;;;;;;10.48;5.45;;;;;;;1.75;55.16;100335.81;5089939;28;20033;-21
2022/02/19 02:38:46;;;;;;;10.00;5.03;;;;;;;1.72;54.33;100323.00;5071448;28;20031;-22
2022/02/19 02:41:12;;;;;;;14.48;6.55;;;;;;;1.87;54.18;100336.41;5089483;28;20035;-22
2022/02/19 02:43:37;;;;;;;15.55;7.85;;;;;;;1.35;56.80;100345.91;5089484;28;20356;-21
2022/02/19 02:46:03;;;;;;;18.00;7.70;;;;;;;0.36;60.09;100344.06;5090098;28;20058;-22
2022/02/19 02:48:28;;;;;;;16.83;7.53;;;;;;;0.12;60.63;100328.03;5089874;28;20065;-22
2022/02/19 02:50:55;;;;;;;15.50;7.20;;;;;;;0.12;61.28;100330.66;5089503;28;20125;-22
2022/02/19 02:53:20;;;;;;;12.75;6.35;;;;;;;0.30;59.97;100331.53;5089307;28;20042;-22
2022/02/19 02:55:46;;;;;;;12.68;6.53;;;;;;;0.57;59.36;100311.50;5089445;28;20035;-21
2022/02/19 02:58:11;;;;;;;13.80;6.28;;;;;;;0.85;59.03;100341.16;5088979;28;20031;-22
2022/02/19 03:00:37;;;;;;;12.30;6.00;;;;;;;0.97;57.96;100342.59;5089176;28;20122;-22
2022/02/19 03:03:02;;;;;;;12.18;5.03;;;;;;;0.90;58.36;100349.44;5089170;28;20020;-22
2022/02/19 03:05:28;;;;;;;10.00;5.32;;;;;;;1.31;57.06;100335.81;5089120;28;20446;-22
2022/02/19 03:07:53;;;;;;;9.20;5.00;;;;;;;1.58;55.91;100354.13;5089047;28;20024;-22
2022/02/19 03:10:19;;;;;;;14.38;4.95;;;;;;;1.18;56.63;100342.28;5089041;28;20039;-21
2022/02/19 03:12:45;;;;;;;13.18;4.82;;;;;;;1.56;56.33;100377.09;5088498;28;20056;-21
2022/02/19 03:15:11;;;;;;;10.63;5.35;;;;;;;1.94;55.28;100368.97;5089410;28;20065;-22
2022/02/19 03:17:39;;;;;;;10.57;4.38;;;;;;;1.81;54.89;100374.66;5089198;28;20415;-23
2022/02/19 03:20:05;;;;;;;8.60;4.03;;;;;;;1.23;56.38;100359.41;5089127;28;20115;-22
2022/02/19 03:22:31;;;;;;;10.88;4.18;;;;;;;1.27;56.35;100371.25;5088635;28;20036;-21
2022/02/19 03:24:57;;;;;;;10.27;4.78;;;;;;;1.25;56.45;100388.97;5088881;28;20423;-22
2022/02/19 03:27:22;;;;;;;12.13;5.45;;;;;;;1.04;57.14;100384.84;5088827;28;20039;-21
2022/02/19 03:29:48;;;;;;;12.50;6.10;;;;;;;1.45;57.00;100400.16;5088956;28;20483;-22
2022/02/19 03:32:13;;;;;;;11.85;5.28;;;;;;;1.35;56.64;100408.16;5088893;28;20395;-21
2022/02/19 03:34:38;;;;;;;12.55;5.38;;;;;;;0.91;57.90;100377.34;5088725;28;20085;-21
2022/02/19 03:37:04;;;;;;;17.77;7.45;;;;;;;0.85;59.17;100392.88;5088636;28;20113;-22
2022/02/19 03:39:29;;;;;;;20.33;7.70;;;;;;;1.39;57.68;100391.09;5089012;28;20549;-22
2022/02/19 03:41:55;;;;;;;18.73;6.65;;;;;;;0.91;58.22;100360.75;5088450;28;20039;-22
2022/02/19 03:44:20;;;;;;;11.80;6.30;;;;;;;1.31;57.95;100380.50;5088717;28;20055;-22
2022/02/19 03:46:46;;;;;;;16.27;6.90;;;;;;;0.76;59.97;100392.78;5088638;28;20047;-22
2022/02/19 03:49:11;;;;;;;19.88;8.75;;;;;;;1.08;60.14;100399.31;5088382;28;20031;-22
2022/02/19 03:51:37;;;;;;;16.73;7.40;;;;;;;1.22;59.29;100391.91;5088330;28;20024;-22
2022/02/19 03:54:02;;;;;;;14.05;6.43;;;;;;;1.54;58.26;100402.72;5088388;28;20694;-21
2022/02/19 03:56:28;;;;;;;9.88;5.30;;;;;;;0.61;60.09;100404.72;5088056;28;20490;-22
2022/02/19 03:58:53;;;;;;;12.30;5.10;;;;;;;0.80;59.90;100378.38;5088069;28;20028;-23
2022/02/19 04:01:19;;;;;;;8.82;4.88;;;;;;;0.83;59.92;100400.06;5088297;28;20024;-22
2022/02/19 04:03:44;;;;;;;8.43;4.90;;;;;;;0.69;60.22;100410.06;5088108;28;20023;-23
2022/02/19 04:06:09;;;;;;;9.27;4.35;;;;;;;0.73;59.98;100395.69;5088227;28;20025;-22
2022/02/19 04:08:35;;;;;;;8.40;4.45;;;;;;;0.68;60.40;100407.63;5069435;28;20024;-23
2022/02/19 04:11:00;;;;;;;14.02;7.95;;;;;;;0.15;61.12;100390.69;5087488;28;20093;-25
2022/02/19 04:13:26;;;;;;;37.33;26.98;;;;;;;-0.34;61.81;100398.69;5087924;28;20039;-23
2022/02/19 04:15:51;;;;;;;37.83;24.80;;;;;;;-0.74;63.00;100394.41;5087362;28;20495;-22
2022/02/19 04:18:17;;;;;;;32.33;21.50;;;;;;;0.35;60.78;100402.78;5069447;28;20028;-21
2022/02/19 04:20:42;;;;;;;33.70;20.83;;;;;;;0.71;58.99;100392.38;5087651;28;20058;-22
2022/02/19 04:23:08;;;;;;;14.90;7.80;;;;;;;0.80;59.55;100415.13;5088156;28;20024;-22
2022/02/19 04:25:33;;;;;;;11.60;5.60;;;;;;;0.63;59.65;100387.03;5087733;28;20085;-21
2022/02/19 04:28:06;;;;;;;12.45;6.30;;;;;;;0.86;60.06;100415.50;5087984;28;20396;-21
2022/02/19 04:30:33;;;;;;;14.88;8.60;;;;;;;1.14;58.68;100409.25;5087485;28;20085;-21
2022/02/19 04:32:58;;;;;;;13.73;6.32;;;;;;;0.74;59.60;100413.09;5087661;28;20028;-22
2022/02/19 04:35:24;;;;;;;103.68;16.92;;;;;;;0.25;62.45;100417.72;5087511;28;20038;-22
2022/02/19 04:37:50;;;;;;;20.85;10.27;;;;;;;0.10;62.67;100419.13;5087572;28;20024;-22
2022/02/19 04:40:15;;;;;;;23.05;11.60;;;;;;;-0.14;63.05;100412.59;5087318;28;20035;-21
2022/02/19 04:42:42;;;;;;;22.05;11.13;;;;;;;-0.07;62.29;100397.94;5087348;28;20024;-22
2022/02/19 04:45:09;;;;;;;20.50;9.30;;;;;;;-0.60;63.76;100390.56;5087776;28;20032;-22
2022/02/19 04:47:35;;;;;;;15.00;9.65;;;;;;;-0.50;62.93;100396.63;5087307;28;20495;-22
2022/02/19 04:50:00;;;;;;;17.75;8.73;;;;;;;0.05;61.16;100384.66;5087432;28;20094;-23
2022/02/19 04:52:26;;;;;;;24.02;13.25;;;;;;;0.08;61.24;100392.22;5069063;28;20082;-21
2022/02/19 04:54:51;;;;;;;39.28;24.83;;;;;;;0.62;59.46;100388.00;5086783;28;20526;-22
2022/02/19 04:57:17;;;;;;;33.05;18.70;;;;;;;0.12;60.62;100397.06;5087294;28;20042;-21
2022/02/19 04:59:42;;;;;;;50.65;24.42;;;;;;;0.20;61.17;100393.72;5087471;28;20044;-22
2022/02/19 05:02:07;;;;;;;22.05;13.35;;;;;;;0.76;59.24;100398.03;5087541;28;20032;-21
2022/02/19 05:04:33;;;;;;;18.90;9.10;;;;;;;0.55;58.89;100397.44;5086935;28;20040;-22
2022/02/19 05:06:58;;;;;;;22.15;9.85;;;;;;;0.96;57.99;100397.88;5068883;28;20036;-22
2022/02/19 05:09:24;;;;;;;38.17;18.90;;;;;;;1.33;58.22;100405.66;5086931;28;20035;-22
2022/02/19 05:11:49;;;;;;;49.20;25.25;;;;;;;1.43;57.21;100410.84;5086689;28;20048;-22
2022/02/19 05:14:15;;;;;;;51.88;24.30;;;;;;;1.47;56.31;100409.56;5087070;28;20479;-22
2022/02/19 05:16:40;;;;;;;45.50;23.50;;;;;;;0.98;57.55;100411.69;5087054;28;20039;-22
2022/02/19 05:19:06;;;;;;;49.55;24.95;;;;;;;0.91;58.35;100436.91;5087060;28;20453;-21
2022/02/19 05:21:31;;;;;;;54.35;28.13;;;;;;;0.99;57.94;100422.06;5068773;28;20035;-22
2022/02/19 05:23:57;;;;;;;91.00;40.88;;;;;;;1.18;56.94;100426.34;5086800;28;20032;-22
2022/02/19 05:26:22;;;;;;;43.30;23.90;;;;;;;1.12;58.09;100452.41;5087405;28;20032;-23
2022/02/19 05:28:47;;;;;;;126.05;51.38;;;;;;;1.76;55.26;100447.94;5089848;28;20039;-21
2022/02/19 05:31:13;;;;;;;216.00;87.72;;;;;;;1.84;55.31;100445.34;5091130;28;20035;-22
2022/02/19 05:33:39;;;;;;;94.45;42.03;;;;;;;1.87;55.35;100452.09;5091124;28;20027;-21
2022/02/19 05:36:04;;;;;;;272.35;112.07;;;;;;;1.90;55.38;100451.78;5090943;28;20032;-22
2022/02/19 05:38:30;;;;;;;121.10;54.35;;;;;;;1.74;56.57;100455.13;5090836;28;20027;-21
2022/02/19 05:40:56;;;;;;;86.82;37.85;;;;;;;1.91;55.65;100467.44;5090719;28;20071;-22
2022/02/19 05:43:21;;;;;;;147.38;101.25;;;;;;;1.74;55.35;100452.50;5090914;28;20031;-22
2022/02/19 05:45:48;;;;;;;396.45;185.80;;;;;;;1.48;57.20;100449.81;5090956;28;20032;-22
2022/02/19 05:48:14;;;;;;;250.60;100.78;;;;;;;1.13;58.74;100470.66;5090682;28;20020;-22
2022/02/19 05:50:39;;;;;;;166.27;73.03;;;;;;;0.94;59.33;100455.84;5090459;28;20568;-23
2022/02/19 05:53:05;;;;;;;83.97;45.83;;;;;;;0.99;59.48;100473.78;5090466;28;20062;-22
2022/02/19 05:55:32;;;;;;;64.10;31.13;;;;;;;1.23;59.04;100469.75;5090556;28;20036;-22
2022/02/19 05:57:57;;;;;;;51.33;28.17;;;;;;;1.45;58.33;100479.00;5090666;28;20495;-22
2022/02/19 06:00:24;;;;;;;53.15;30.65;;;;;;;1.77;58.37;100475.84;5090532;28;20027;-22
2022/02/19 06:02:50;;;;;;;43.15;23.85;;;;;;;2.34;57.50;100480.72;5090374;28;20024;-22
2022/02/19 06:05:15;;;;;;;59.60;33.33;;;;;;;2.74;55.84;100482.75;5090379;28;20031;-22
2022/02/19 06:07:41;;;;;;;70.38;35.45;;;;;;;3.01;54.98;100484.34;5090247;28;20483;-22
2022/02/19 06:10:08;;;;;;;67.47;38.15;;;;;;;2.63;55.73;100490.91;5072259;28;20036;-22
2022/02/19 06:12:33;;;;;;;22.55;13.07;;;;;;;2.75;55.66;100484.38;5089591;28;20086;-26
2022/02/19 06:14:59;;;;;;;19.35;10.90;;;;;;;3.04;54.92;100487.63;5090226;28;21001;-22
2022/02/19 06:17:24;;;;;;;126.97;66.95;;;;;;;3.11;55.04;100486.84;5090174;28;20028;-22
2022/02/19 06:19:50;;;;;;;106.47;52.70;;;;;;;3.45;54.18;100485.13;5090017;28;20042;-22
2022/02/19 06:22:15;;;;;;;22.02;12.65;;;;;;;3.55;53.85;100478.69;5071560;28;20101;-22
2022/02/19 06:24:41;;;;;;;15.35;7.50;;;;;;;3.81;53.34;100497.03;5090019;28;20039;-22
2022/02/19 06:27:06;;;;;;;12.55;6.88;;;;;;;3.68;53.72;100504.63;5090046;28;20039;-22
2022/02/19 06:29:32;;;;;;;13.45;6.22;;;;;;;3.63;54.46;100494.53;5090010;28;20054;-21
2022/02/19 06:31:57;;;;;;;20.02;9.95;;;;;;;3.65;54.29;100509.38;5089818;28;20077;-22
2022/02/19 06:34:23;;;;;;;26.67;13.95;;;;;;;4.00;54.23;100501.19;5090032;28;20031;-22
2022/02/19 06:36:49;;;;;;;15.65;8.43;;;;;;;4.33;52.91;100481.81;5089478;28;20043;-21
2022/02/19 06:39:14;;;;;;;23.55;11.02;;;;;;;4.19;53.32;100493.91;5089577;28;20032;-22
2022/02/19 06:41:40;;;;;;;30.42;12.35;;;;;;;3.88;53.42;100480.53;5089412;28;20085;-23
2022/02/19 06:44:05;;;;;;;25.52;11.35;;;;;;;3.76;54.41;100499.34;5089922;28;20514;-22
2022/02/19 06:46:31;;;;;;;36.10;16.42;;;;;;;3.99;53.65;100496.06;5089042;28;20036;-22
2022/02/19 06:48:56;;;;;;;21.35;11.18;;;;;;;3.95;55.27;100503.47;5089664;28;20119;-22
2022/02/19 06:51:22;;;;;;;27.38;13.30;;;;;;;4.79;53.66;100501.34;5089474;28;20028;-21
2022/02/19 06:53:47;;;;;;;82.90;33.83;;;;;;;4.63;53.09;100501.41;5089214;28;20043;-22
2022/02/19 06:56:13;;;;;;;74.20;35.25;;;;;;;4.48;53.25;100503.09;5089597;28;20028;-22
2022/02/19 06:58:38;;;;;;;33.92;16.25;;;;;;;4.33;53.69;100513.50;5089234;28;20036;-22
2022/02/19 07:01:04;;;;;;;30.67;15.88;;;;;;;3.65;55.86;100483.00;5089399;28;20560;-22
2022/02/19 07:03:29;;;;;;;37.33;19.15;;;;;;;3.62;57.02;100503.44;5089197;28;20038;-22
2022/02/19 07:05:55;;;;;;;33.75;14.90;;;;;;;3.73;55.11;100514.66;5089322;28;20067;-22
2022/02/19 07:08:20;;;;;;;22.15;10.77;;;;;;;4.00;54.20;100503.81;5089705;28;20752;-22
2022/02/19 07:10:46;;;;;;;15.90;8.18;;;;;;;3.92;54.08;100497.69;5088580;28;20106;-22
2022/02/19 07:13:12;;;;;;;17.70;8.55;;;;;;;4.31;54.09;100502.28;5089312;28;20423;-22
2022/02/19 07:15:37;;;;;;;19.98;11.43;;;;;;;4.46;53.66;100494.53;5088948;28;20032;-22
2022/02/19 07:18:03;;;;;;;24.50;11.60;;;;;;;4.66;54.46;100503.72;5088838;28;20028;-21
2022/02/19 07:20:28;;;;;;;19.27;9.40;;;;;;;4.77;53.37;100487.47;5088767;28;20043;-22
2022/02/19 07:22:54;;;;;;;18.73;7.80;;;;;;;4.87;54.16;100491.75;5053483;28;20024;-22
2022/02/19 07:25:20;;;;;;;9.57;5.82;;;;;;;4.59;53.34;100497.44;5089027;28;20035;-22
2022/02/19 07:27:46;;;;;;;17.25;8.63;;;;;;;4.80;53.58;100503.00;5089059;28;20024;-22
2022/02/19 07:30:13;;;;;;;14.95;6.93;;;;;;;5.00;53.14;100499.94;5088993;28;20820;-22
2022/02/19 07:32:38;;;;;;;14.60;6.63;;;;;;;4.91;53.65;100490.44;5088429;28;20028;-21
2022/02/19 07:35:04;;;;;;;16.13;5.97;;;;;;;4.73;53.93;100490.66;5088798;28;20028;-21
2022/02/19 07:37:30;;;;;;;17.73;6.82;;;;;;;4.83;54.01;100492.09;5088679;28;20103;-21
2022/02/19 07:39:55;;;;;;;12.82;5.82;;;;;;;4.96;54.30;100496.00;5070705;28;20113;-22
2022/02/19 07:42:21;;;;;;;12.13;5.88;;;;;;;4.83;53.43;100497.38;5088509;28;20066;-22
2022/02/19 07:44:46;;;;;;;15.15;7.15;;;;;;;4.79;54.12;100480.22;5088326;28;20125;-22
2022/02/19 07:47:12;;;;;;;16.50;7.90;;;;;;;5.01;54.91;100478.66;5088861;28;20051;-22
2022/02/19 08:00:33;;;;;;;13.75;7.68;;;;;;;5.85;50.59;100504.44;5088029;28;20043;-22
2022/02/19 08:02:59;;;;;;;45.15;29.02;;;;;;;6.13;50.11;100514.47;5087945;28;20028;-22
2022/02/19 08:05:24;;;;;;;57.10;26.45;;;;;;;6.36;48.13;100523.22;5088194;28;20035;-23
2022/02/19 08:07:50;;;;;;;17.27;9.07;;;;;;;6.68;48.18;100531.88;5088079;28;20035;-21
2022/02/19 08:10:15;;;;;;;14.10;6.82;;;;;;;7.03;49.11;100526.84;5087707;28;20035;-22
2022/02/19 08:12:41;;;;;;;12.15;5.82;;;;;;;6.91;49.95;100536.25;5087320;28;20059;-22
2022/02/19 08:15:07;;;;;;;12.43;5.28;;;;;;;6.90;49.31;100538.06;5087878;28;20425;-22
2022/02/19 08:17:32;;;;;;;7.65;4.82;;;;;;;6.93;49.29;100542.19;5088051;28;20024;-23
2022/02/19 08:19:58;;;;;;;18.88;6.40;;;;;;;7.17;48.20;100539.25;5069870;28;20558;-21
2022/02/19 08:22:23;;;;;;;27.50;16.08;;;;;;;7.37;46.45;100536.81;5070215;28;20085;-21
2022/02/19 08:24:49;;;;;;;59.13;22.23;;;;;;;7.72;46.48;100525.56;5088180;28;20031;-22
2022/02/19 08:27:14;;;;;;;19.13;8.63;;;;;;;7.71;48.00;100523.94;5088546;28;20031;-22
2022/02/19 08:29:40;;;;;;;12.65;6.43;;;;;;;8.03;45.74;100534.06;5070389;28;20464;-22
2022/02/19 08:32:06;;;;;;;19.17;7.95;;;;;;;8.23;46.19;100528.06;5088505;28;20035;-21
2022/02/19 08:34:31;;;;;;;34.67;14.50;;;;;;;8.38;46.01;100526.16;5087891;28;20063;-21
2022/02/19 08:36:56;;;;;;;9.48;5.30;;;;;;;8.36;45.69;100514.91;5088656;28;20096;-22
2022/02/19 08:39:25;;;;;;;13.50;5.75;;;;;;;8.16;45.57;100505.97;5088813;28;20028;-22
2022/02/19 08:41:51;;;;;;;13.50;5.90;;;;;;;8.31;47.60;100506.69;5088232;28;20056;-21
2022/02/19 08:44:17;;;;;;;9.95;5.90;;;;;;;8.92;46.15;100505.25;5088313;28;20036;-22
2022/02/19 08:46:42;;;;;;;12.02;6.38;;;;;;;9.29;45.33;100492.50;5088201;28;20085;-21
2022/02/19 08:49:07;;;;;;;11.13;5.20;;;;;;;9.36;45.71;100512.00;5088440;28;20781;-22
2022/02/19 08:51:33;;;;;;;10.07;4.80;;;;;;;9.40;44.74;100503.41;5088509;28;20024;-21
2022/02/19 08:53:58;;;;;;;11.60;5.72;;;;;;;9.38;44.57;100513.44;5088551;28;20039;-22
2022/02/19 08:56:24;;;;;;;10.05;5.28;;;;;;;9.39;45.52;100524.91;5088509;28;20035;-21
2022/02/19 08:58:49;;;;;;;10.98;5.35;;;;;;;9.19;44.48;100524.81;5088225;28;20484;-25
2022/02/19 09:01:15;;;;;;;14.88;6.85;;;;;;;9.00;45.21;100529.03;5088061;28;20036;-21
2022/02/19 09:03:40;;;;;;;21.83;14.80;;;;;;;9.47;45.07;100519.41;5087703;28;20020;-21
2022/02/19 09:06:06;;;;;;;20.15;10.93;;;;;;;9.48;43.15;100530.84;5088330;28;20043;-21
2022/02/19 09:08:31;;;;;;;126.35;52.72;;;;;;;9.82;44.08;100514.75;5087713;28;20020;-21
2022/02/19 09:10:57;;;;;;;24.55;13.25;;;;;;;9.52;43.71;100518.78;5087728;28;20073;-21
2022/02/19 09:13:24;;;;;;;17.98;9.07;;;;;;;9.76;43.16;100517.41;5087746;28;20886;-21
2022/02/19 09:15:50;;;;;;;13.70;8.18;;;;;;;9.61;42.95;100526.41;5088045;28;20047;-21
2022/02/19 09:18:16;;;;;;;10.10;4.40;;;;;;;9.80;42.07;100514.13;5087757;28;20046;-22
2022/02/19 09:20:41;;;;;;;10.48;4.30;;;;;;;10.20;42.00;100513.38;5087870;28;20031;-21
2022/02/19 09:23:07;;;;;;;9.70;5.70;;;;;;;9.88;42.65;100512.31;5087494;28;20063;-21
2022/02/19 09:25:33;;;;;;;10.82;6.55;;;;;;;9.97;42.41;100500.41;5087715;28;20055;-21
2022/02/19 09:27:58;;;;;;;10.15;5.82;;;;;;;10.67;40.83;100500.81;5088578;28;20404;-22
2022/02/19 09:30:24;;;;;;;11.73;4.63;;;;;;;11.21;38.74;100496.13;5087747;28;20032;-21
2022/02/19 09:32:50;;;;;;;11.02;5.55;;;;;;;11.16;38.60;100507.44;5087855;28;20028;-22
2022/02/19 09:35:15;;;;;;;11.05;5.40;;;;;;;11.53;40.33;100512.19;5087490;28;20032;-21
2022/02/19 09:37:41;;;;;;;10.15;4.90;;;;;;;11.37;39.83;100486.81;5087536;28;20035;-21
2022/02/19 09:40:07;;;;;;;13.23;7.65;;;;;;;11.79;37.40;100496.00;5068561;28;20407;-21
2022/02/19 09:42:32;;;;;;;24.33;7.95;;;;;;;11.23;38.17;100476.19;5086761;28;20099;-21
2022/02/19 09:45:00;;;;;;;55.90;35.90;;;;;;;11.87;37.79;100497.59;5069718;28;20020;-21
2022/02/19 09:47:27;;;;;;;11.20;4.82;;;;;;;11.55;37.64;100489.56;5087695;28;20043;-22
2022/02/19 09:49:53;;;;;;;46.63;35.22;;;;;;;11.96;37.06;100501.66;5087629;28;20027;-21
2022/02/19 09:52:19;;;;;;;17.05;11.05;;;;;;;12.08;36.22;100492.97;5087761;28;20028;-21
2022/02/19 09:54:44;;;;;;;21.98;10.02;;;;;;;12.31;37.27;100498.50;5087344;28;20085;-21
2022/02/19 09:57:10;;;;;;;12.07;6.75;;;;;;;12.85;35.76;100494.25;5087799;28;20036;-21
2022/02/19 09:59:35;;;;;;;7.93;4.88;;;;;;;13.41;33.51;100496.91;5087702;28;20089;-21
2022/02/19 10:02:04;;;;;;;10.60;4.68;;;;;;;13.52;33.82;100498.78;5087464;28;20061;-22
2022/02/19 10:04:29;;;;;;;10.77;4.88;;;;;;;12.41;35.14;100476.59;5087672;28;20047;-21
2022/02/19 10:06:57;;;;;;;17.08;5.75;;;;;;;12.38;35.27;100485.91;5087760;28;20510;-22
2022/02/19 10:09:24;;;;;;;14.68;6.93;;;;;;;12.90;35.60;100477.53;5087513;28;20081;-21
2022/02/19 10:11:51;;;;;;;11.68;4.50;;;;;;;13.22;33.82;100483.50;5087325;28;20040;-21
2022/02/19 10:14:26;;;;;;;12.60;5.88;;;;;;;13.25;33.25;100477.69;5086433;28;20036;-22
2022/02/19 10:17:17;;;;;;;12.50;5.25;;;;;;;13.67;33.80;100485.00;5089939;28;20032;-21
2022/02/19 10:20:17;;;;;;;11.55;5.50;;;;;;;13.69;32.13;100484.75;5090106;28;20020;-21
2022/02/19 10:22:46;;;;;;;14.20;5.03;;;;;;;14.32;33.00;100472.59;5045673;28;20512;-21
2022/02/19 10:25:15;;;;;;;10.93;5.03;;;;;;;14.81;31.65;100468.63;5090112;28;20055;-22
2022/02/19 10:27:44;;;;;;;14.00;6.18;;;;;;;14.63;31.83;100452.66;5089853;28;20024;-21
2022/02/19 10:30:10;;;;;;;9.43;5.30;;;;;;;14.85;32.62;100464.41;5090040;28;20047;-22
2022/02/19 10:33:10;;;;;;;13.45;5.07;;;;;;;15.61;31.15;100450.78;5089545;28;20554;-21
2022/02/19 10:35:38;;;;;;;13.68;7.55;;;;;;;15.37;32.49;100446.56;5045749;28;20040;-20
2022/02/19 10:38:08;;;;;;;11.70;5.80;;;;;;;15.70;31.15;100453.88;5089844;28;20081;-21
2022/02/19 10:40:43;;;;;;;8.70;4.10;;;;;;;15.75;30.19;100463.91;5089122;28;20427;-21
2022/02/19 10:43:10;;;;;;;13.05;5.22;;;;;;;15.53;31.34;100440.41;5090079;28;20074;-21
2022/02/19 10:45:37;;;;;;;30.15;12.20;;;;;;;15.60;32.40;100449.13;5089471;28;20035;-21
2022/02/19 10:48:12;;;;;;;70.32;54.10;;;;;;;15.59;31.19;100447.50;5089620;28;20593;-22
2022/02/19 10:50:38;;;;;;;58.65;28.95;;;;;;;15.82;32.08;100432.31;5089209;28;20055;-21
2022/02/19 10:53:04;;;;;;;16.58;8.88;;;;;;;16.21;30.40;100410.84;5088985;28;20059;-22
2022/02/19 10:55:30;;;;;;;132.23;71.70;;;;;;;15.84;29.80;100416.75;5089467;28;20032;-21
2022/02/19 10:57:59;;;;;;;11.63;4.93;;;;;;;16.37;28.42;100399.22;5089398;28;20082;-21
2022/02/19 11:00:25;;;;;;;16.33;5.95;;;;;;;16.44;29.85;100407.91;5071322;28;20107;-22
2022/02/19 11:02:50;;;;;;;9.45;3.72;;;;;;;16.53;29.01;100419.09;5088797;28;20101;-21
2022/02/19 11:05:17;;;;;;;8.52;4.07;;;;;;;17.01;29.48;100393.25;5088668;28;20110;-22
2022/02/19 11:07:43;;;;;;;17.10;12.18;;;;;;;16.71;29.11;100388.31;5088949;28;20028;-22
2022/02/19 11:10:14;;;;;;;19.42;11.77;;;;;;;16.84;28.98;100387.16;5089349;28;20048;-21
2022/02/19 11:12:39;;;;;;;50.42;34.17;;;;;;;17.03;29.36;100396.53;5088567;28;20504;-22
2022/02/19 11:15:06;;;;;;;12.38;7.47;;;;;;;16.93;29.61;100391.03;5089077;28;20039;-22
2022/02/19 11:17:32;;;;;;;37.63;27.77;;;;;;;16.80;30.96;100381.44;5089128;28;20032;-21
2022/02/19 11:19:58;;;;;;;12.60;7.45;;;;;;;16.87;30.91;100379.38;5088924;28;20552;-21
2022/02/19 11:22:24;;;;;;;8.32;4.25;;;;;;;16.79;28.43;100378.97;5088755;28;20056;-22
2022/02/19 11:24:49;;;;;;;14.18;6.95;;;;;;;16.73;29.41;100363.84;5088795;28;20385;-21
2022/02/19 11:27:15;;;;;;;19.20;8.55;;;;;;;16.84;29.89;100376.41;5070611;28;20024;-21